createdAt,value
2022-08-09T00:00:34.827Z,7.13
2022-08-09T00:04:05.534Z,6.63
2022-08-09T00:06:19.619Z,7.05
2022-08-09T00:08:48.412Z,6.88
2022-08-09T00:11:24.332Z,6.75
2022-08-09T00:13:52.452Z,6.00
2022-08-09T00:16:26.336Z,6.25
2022-08-09T00:19:10.323Z,6.25
2022-08-09T00:24:27.228Z,5.63
2022-08-09T00:26:55.922Z,5.85
2022-08-09T00:30:09.879Z,6.80
2022-08-09T00:32:12.708Z,6.40
2022-08-09T00:34:39.523Z,7.25
2022-08-09T00:37:13.085Z,7.05
2022-08-09T00:40:12.667Z,6.65
2022-08-09T00:44:13.490Z,6.85
2022-08-09T00:45:16.272Z,6.72
2022-08-09T00:47:43.738Z,6.70
2022-08-09T00:50:14.745Z,6.85
2022-08-09T00:52:42.368Z,7.80
2022-08-09T00:55:16.729Z,7.22
2022-08-09T00:57:59.208Z,8.00
2022-08-09T01:00:28.473Z,7.03
2022-08-09T01:03:46.364Z,8.10
2022-08-09T01:07:00.731Z,7.57
2022-08-09T01:09:56.953Z,7.85
2022-08-09T01:12:55.894Z,6.75
2022-08-09T01:15:37.218Z,6.80
2022-08-09T01:18:15.276Z,7.03
2022-08-09T01:21:40.960Z,7.65
2022-08-09T01:25:12.336Z,7.68
2022-08-09T01:27:42.609Z,7.68
2022-08-09T01:30:28.480Z,7.10
2022-08-09T01:33:03.410Z,7.97
2022-08-09T01:35:44.630Z,7.72
2022-08-09T01:38:24.552Z,7.57
2022-08-09T01:41:05.832Z,7.05
2022-08-09T01:43:50.272Z,7.28
2022-08-09T01:46:32.448Z,7.05
2022-08-09T01:49:12.558Z,6.72
2022-08-09T01:51:53.708Z,6.78
2022-08-09T01:54:33.406Z,6.30
2022-08-09T01:57:11.895Z,6.85
2022-08-09T01:59:51.748Z,7.50
2022-08-09T02:02:30.901Z,7.82
2022-08-09T02:05:15.618Z,7.57
2022-08-09T02:08:38.808Z,6.78
2022-08-09T02:10:50.900Z,7.30
2022-08-09T02:13:26.274Z,7.53
2022-08-09T02:16:10.153Z,6.55
2022-08-09T02:18:43.056Z,6.80
2022-08-09T02:21:22.469Z,7.82
2022-08-09T02:23:57.570Z,7.65
2022-08-09T02:26:34.382Z,8.20
2022-08-09T02:29:20.844Z,8.45
2022-08-09T02:31:51.355Z,8.52
2022-08-09T02:34:41.437Z,8.77
2022-08-09T02:37:24.185Z,8.50
2022-08-09T02:40:10.937Z,10.40
2022-08-09T02:42:46.817Z,8.77
2022-08-09T02:45:37.774Z,9.00
2022-08-09T02:48:30.701Z,8.82
2022-08-09T02:51:02.864Z,7.90
2022-08-09T02:54:00.341Z,8.63
2022-08-09T02:56:32.748Z,8.25
2022-08-09T02:59:06.894Z,7.00
2022-08-09T03:01:43.356Z,7.90
2022-08-09T03:04:28.993Z,8.40
2022-08-09T03:07:11.434Z,7.88
2022-08-09T03:09:54.259Z,7.55
2022-08-09T03:12:27.478Z,9.25
2022-08-09T03:14:56.747Z,8.65
2022-08-09T03:17:27.098Z,8.27
2022-08-09T03:20:05.370Z,8.20
2022-08-09T03:22:43.629Z,8.23
2022-08-09T03:25:26.314Z,8.13
2022-08-09T03:28:11.406Z,8.48
2022-08-09T03:30:45.840Z,9.57
2022-08-09T03:33:19.626Z,9.23
2022-08-09T03:36:13.035Z,8.98
2022-08-09T03:38:44.599Z,8.53
2022-08-09T03:41:14.750Z,7.93
2022-08-09T03:44:03.341Z,9.10
2022-08-09T03:46:36.197Z,8.90
2022-08-09T03:49:07.901Z,8.45
2022-08-09T03:51:57.277Z,9.68
2022-08-09T03:54:38.482Z,12.43
2022-08-09T03:57:18.507Z,7.57
2022-08-09T03:59:54.736Z,7.80
2022-08-09T04:02:28.599Z,7.68
2022-08-09T04:05:05.996Z,9.80
2022-08-09T04:07:52.749Z,8.70
2022-08-09T04:10:29.537Z,9.85
2022-08-09T04:13:11.295Z,9.52
2022-08-09T04:16:18.894Z,10.68
2022-08-09T04:18:26.387Z,9.70
2022-08-09T04:20:58.479Z,9.45
2022-08-09T04:23:28.186Z,10.07
2022-08-09T04:25:55.836Z,9.68
2022-08-09T04:28:36.315Z,8.88
2022-08-09T04:31:09.740Z,9.07
2022-08-09T04:33:47.386Z,9.57
2022-08-09T04:36:27.315Z,9.20
2022-08-09T04:39:02.315Z,9.85
2022-08-09T04:41:32.335Z,10.63
2022-08-09T04:44:11.027Z,8.50
2022-08-09T04:46:58.137Z,8.93
2022-08-09T04:49:53.605Z,8.48
2022-08-09T04:55:02.004Z,8.68
2022-08-09T04:57:59.195Z,9.07
2022-08-09T05:00:18.185Z,8.55
2022-08-09T05:02:52.507Z,8.48
2022-08-09T05:05:31.824Z,9.45
2022-08-09T05:08:10.130Z,10.23
2022-08-09T05:10:42.066Z,8.68
2022-08-09T05:13:10.914Z,8.55
2022-08-09T05:15:38.542Z,8.00
2022-08-09T05:18:37.604Z,7.72
2022-08-09T05:20:57.999Z,6.15
2022-08-09T05:23:55.492Z,5.82
2022-08-09T05:26:36.087Z,5.78
2022-08-09T05:29:06.148Z,5.25
2022-08-09T05:31:44.187Z,5.13
2022-08-09T05:34:16.567Z,5.55
2022-08-09T05:36:47.660Z,4.95
2022-08-09T05:39:28.218Z,4.97
2022-08-09T05:42:01.678Z,5.00
2022-08-09T05:44:35.078Z,5.10
2022-08-09T05:47:05.538Z,5.10
2022-08-09T05:50:11.149Z,4.80
2022-08-09T05:52:24.776Z,4.35
2022-08-09T05:54:52.278Z,4.28
2022-08-09T05:57:19.445Z,4.07
2022-08-09T05:59:51.962Z,4.72
2022-08-09T06:02:18.692Z,4.25
2022-08-09T06:04:46.247Z,4.05
2022-08-09T06:07:21.283Z,4.35
2022-08-09T06:10:01.765Z,4.43
2022-08-09T06:12:30.652Z,4.28
2022-08-09T06:15:01.306Z,4.80
2022-08-09T06:17:39.240Z,5.00
2022-08-09T06:20:08.856Z,4.75
2022-08-09T06:22:36.011Z,4.63
2022-08-09T06:25:04.246Z,4.55
2022-08-09T06:27:42.231Z,4.55
2022-08-09T06:30:14.010Z,4.82
2022-08-09T06:32:59.853Z,4.13
2022-08-09T06:35:56.455Z,3.92
2022-08-09T06:38:16.627Z,3.95
2022-08-09T06:40:43.808Z,4.25
2022-08-09T06:43:11.513Z,4.30
2022-08-09T06:46:05.267Z,4.40
2022-08-09T06:48:31.033Z,4.22
2022-08-09T06:50:59.996Z,3.92
2022-08-09T06:53:38.080Z,4.53
2022-08-09T06:56:09.170Z,4.20
2022-08-09T07:00:52.759Z,4.38
2022-08-09T07:01:27.667Z,4.85
2022-08-09T07:04:11.139Z,4.70
2022-08-09T07:06:47.511Z,4.53
2022-08-09T07:09:55.344Z,4.47
2022-08-09T07:12:06.898Z,3.95
2022-08-09T07:14:40.752Z,4.60
2022-08-09T07:17:08.323Z,4.55
2022-08-09T07:19:38.087Z,4.57
2022-08-09T07:22:05.004Z,4.82
2022-08-09T07:24:40.597Z,4.20
2022-08-09T07:27:26.946Z,4.22
2022-08-09T07:30:03.376Z,4.57
2022-08-09T07:32:34.573Z,4.85
2022-08-09T07:35:07.913Z,4.50
2022-08-09T07:37:43.360Z,3.95
2022-08-09T07:40:18.566Z,4.88
2022-08-09T07:43:01.135Z,4.05
2022-08-09T07:45:39.179Z,4.40
2022-08-09T07:48:25.229Z,3.88
2022-08-09T07:51:09.396Z,3.42
2022-08-09T07:54:05.090Z,4.10
2022-08-09T07:56:45.110Z,4.47
2022-08-09T07:59:34.756Z,3.80
2022-08-09T08:02:05.080Z,3.83
2022-08-09T08:04:32.716Z,3.60
2022-08-09T08:07:15.598Z,4.05
2022-08-09T08:10:08.219Z,3.67
2022-08-09T08:12:43.547Z,3.53
2022-08-09T08:15:17.292Z,3.40
2022-08-09T08:17:57.943Z,3.40
2022-08-09T08:20:33.513Z,3.85
2022-08-09T08:23:16.640Z,3.60
2022-08-09T08:25:50.170Z,3.92
2022-08-09T08:28:32.203Z,3.42
2022-08-09T08:31:10.403Z,3.42
2022-08-09T08:33:53.698Z,3.70
2022-08-09T08:36:29.036Z,4.00
2022-08-09T08:38:59.918Z,3.40
2022-08-09T08:41:50.486Z,2.97
2022-08-09T08:44:26.934Z,3.25
2022-08-09T08:47:04.414Z,3.20
2022-08-09T08:49:48.439Z,3.17
2022-08-09T08:55:15.325Z,3.40
2022-08-09T08:57:57.508Z,3.33
2022-08-09T09:00:34.288Z,3.47
2022-08-09T09:03:08.602Z,3.63
2022-08-09T09:06:03.252Z,3.35
2022-08-09T09:08:43.075Z,3.15
2022-08-09T09:11:17.863Z,3.47
2022-08-09T09:13:58.448Z,3.20
2022-08-09T09:16:34.550Z,3.17
2022-08-09T09:19:37.190Z,2.92
2022-08-09T09:26:02.559Z,2.70
2022-08-09T09:28:03.826Z,3.17
2022-08-09T09:30:41.347Z,3.13
2022-08-09T09:33:16.471Z,2.85
2022-08-09T09:36:19.808Z,2.83
2022-08-09T09:38:58.067Z,2.60
2022-08-09T09:41:26.361Z,2.80
2022-08-09T09:44:12.100Z,3.00
2022-08-09T09:46:51.642Z,3.90
2022-08-09T09:49:50.043Z,3.03
2022-08-09T09:52:33.401Z,2.63
2022-08-09T09:55:23.927Z,3.05
2022-08-09T09:58:18.101Z,2.42
2022-08-09T10:00:58.791Z,2.92
2022-08-09T10:03:57.631Z,3.05
2022-08-09T10:06:43.486Z,2.97
2022-08-09T10:09:22.152Z,2.83
2022-08-09T10:12:11.838Z,2.92
2022-08-09T10:14:48.258Z,2.90
2022-08-09T10:17:51.307Z,2.78
2022-08-09T10:20:27.272Z,3.08
2022-08-09T10:23:17.370Z,2.80
2022-08-09T10:26:07.448Z,2.90
2022-08-09T10:28:35.442Z,2.33
2022-08-09T10:34:09.122Z,2.25
2022-08-09T10:36:40.233Z,2.90
2022-08-09T10:39:15.651Z,2.50
2022-08-09T10:41:46.263Z,2.50
2022-08-09T10:44:21.735Z,2.70
2022-08-09T10:48:13.337Z,2.55
2022-08-09T10:51:06.813Z,2.20
2022-08-09T10:53:54.828Z,2.20
2022-08-09T10:56:35.526Z,2.40
2022-08-09T10:59:23.139Z,2.33
2022-08-09T11:03:15.493Z,2.50
2022-08-09T11:04:55.648Z,2.22
2022-08-09T11:07:57.564Z,2.30
2022-08-09T11:10:47.032Z,2.05
2022-08-09T11:13:49.003Z,2.35
2022-08-09T11:16:38.183Z,2.00
2022-08-09T11:19:10.455Z,2.05
2022-08-09T11:22:16.751Z,2.67
2022-08-09T11:25:19.345Z,2.20
2022-08-09T11:28:05.224Z,2.28
2022-08-09T11:30:37.998Z,2.00
2022-08-09T11:33:36.374Z,1.70
2022-08-09T11:36:03.487Z,2.40
2022-08-09T11:38:41.363Z,2.00
2022-08-09T11:41:14.213Z,1.70
2022-08-09T11:43:55.341Z,1.85
2022-08-09T11:46:26.616Z,1.80
2022-08-09T11:49:05.402Z,2.10
2022-08-09T11:53:02.585Z,2.03
2022-08-09T11:55:52.385Z,2.15
2022-08-09T11:58:33.077Z,1.95
2022-08-09T12:01:15.527Z,2.65
2022-08-09T12:04:05.067Z,2.30
2022-08-09T12:06:39.090Z,2.70
2022-08-09T12:09:33.651Z,2.28
2022-08-09T12:12:12.351Z,1.80
2022-08-09T12:15:07.374Z,2.40
2022-08-09T12:17:44.593Z,1.70
2022-08-09T12:20:22.886Z,2.00
2022-08-09T12:22:59.553Z,1.70
2022-08-09T12:25:37.372Z,1.90
2022-08-09T12:29:00.307Z,1.77
2022-08-09T12:31:58.009Z,2.22
2022-08-09T12:34:13.846Z,1.80
2022-08-09T12:36:59.173Z,1.63
2022-08-09T12:39:38.599Z,1.77
2022-08-09T12:42:08.845Z,1.95
2022-08-09T12:44:40.000Z,2.28
2022-08-09T12:47:13.177Z,1.60
2022-08-09T12:49:52.855Z,2.00
2022-08-09T12:52:19.902Z,2.15
2022-08-09T12:56:15.245Z,2.20
2022-08-09T12:58:27.489Z,2.60
2022-08-09T13:00:56.541Z,2.53
2022-08-09T13:03:54.116Z,2.10
2022-08-09T13:06:44.370Z,1.77
2022-08-09T13:09:21.562Z,2.25
2022-08-09T13:12:01.517Z,2.40
2022-08-09T13:14:41.637Z,2.17
2022-08-09T13:17:43.843Z,1.92
2022-08-09T13:20:14.341Z,1.90
2022-08-09T13:23:05.415Z,1.83
2022-08-09T13:25:54.616Z,1.98
2022-08-09T13:28:34.169Z,2.35
2022-08-09T13:32:19.510Z,1.75
2022-08-09T13:34:04.450Z,2.00
2022-08-09T13:36:40.280Z,2.30
2022-08-09T13:41:17.676Z,1.52
2022-08-09T13:42:12.437Z,2.25
2022-08-09T13:44:43.158Z,1.80
2022-08-09T13:47:26.686Z,1.40
2022-08-09T13:50:30.407Z,1.30
2022-08-09T13:52:58.788Z,1.38
2022-08-09T13:55:29.136Z,2.00
2022-08-09T13:57:59.721Z,1.70
2022-08-09T14:00:29.477Z,1.48
2022-08-09T14:03:03.016Z,1.77
2022-08-09T14:05:57.201Z,1.80
2022-08-09T14:08:30.717Z,1.85
2022-08-09T14:10:59.574Z,1.40
2022-08-09T14:14:22.923Z,1.63
2022-08-09T14:16:28.268Z,1.73
2022-08-09T14:18:58.279Z,1.60
2022-08-09T14:21:29.671Z,1.60
2022-08-09T14:24:09.974Z,1.50
2022-08-09T14:26:55.801Z,1.60
2022-08-09T14:30:03.904Z,1.70
2022-08-09T14:32:16.424Z,2.20
2022-08-09T14:34:55.646Z,1.92
2022-08-09T14:37:28.140Z,1.80
2022-08-09T14:39:55.582Z,2.00
2022-08-09T14:42:30.332Z,1.80
2022-08-09T14:46:56.090Z,2.47
2022-08-09T14:47:57.995Z,2.00
2022-08-09T14:50:37.026Z,1.80
2022-08-09T14:53:13.675Z,2.10
2022-08-09T14:55:50.138Z,2.30
2022-08-09T14:58:18.525Z,2.00
2022-08-09T15:00:47.944Z,2.13
2022-08-09T15:03:16.740Z,2.30
2022-08-09T15:05:52.501Z,2.30
2022-08-09T15:08:24.416Z,2.30
2022-08-09T15:11:01.284Z,2.20
2022-08-09T15:13:56.069Z,3.58
2022-08-09T15:16:19.724Z,2.50
2022-08-09T15:18:52.431Z,2.30
2022-08-09T15:21:57.884Z,2.53
2022-08-09T15:24:12.742Z,3.00
2022-08-09T15:26:45.320Z,2.38
2022-08-09T15:30:57.628Z,2.30
2022-08-09T15:32:02.547Z,2.22
2022-08-09T15:34:34.248Z,2.55
2022-08-09T15:37:24.225Z,2.58
2022-08-09T15:40:20.120Z,1.90
2022-08-09T15:42:50.203Z,2.75
2022-08-09T15:45:21.646Z,2.53
2022-08-09T15:48:05.172Z,2.25
2022-08-09T15:50:39.082Z,5.38
2022-08-09T15:54:02.839Z,2.42
2022-08-09T15:56:11.066Z,2.53
2022-08-09T15:58:40.525Z,1.98
2022-08-09T16:01:08.258Z,2.40
2022-08-09T16:03:41.689Z,2.65
2022-08-09T16:06:27.335Z,2.33
2022-08-09T16:09:00.884Z,2.45
2022-08-09T16:11:30.995Z,3.08
2022-08-09T16:14:05.902Z,2.35
2022-08-09T16:16:37.354Z,2.53
2022-08-09T16:19:13.480Z,3.03
2022-08-09T16:21:48.692Z,1.88
2022-08-09T16:24:30.280Z,1.90
2022-08-09T16:27:01.081Z,2.22
2022-08-09T16:29:36.708Z,2.33
2022-08-09T16:32:17.936Z,2.40
2022-08-09T16:34:56.455Z,2.63
2022-08-09T16:37:55.441Z,2.53
2022-08-09T16:40:30.019Z,2.65
2022-08-09T16:43:04.459Z,2.10
2022-08-09T16:45:31.808Z,2.38
2022-08-09T16:48:41.704Z,2.20
2022-08-09T16:50:58.837Z,1.60
2022-08-09T16:53:28.364Z,1.60
2022-08-09T16:56:07.591Z,1.60
2022-08-09T16:58:39.684Z,1.83
2022-08-09T17:01:08.150Z,2.00
2022-08-09T17:03:36.349Z,2.00
2022-08-09T17:06:28.336Z,2.10
2022-08-09T17:09:02.816Z,1.83
2022-08-09T17:11:40.938Z,3.10
2022-08-09T17:14:26.017Z,2.55
2022-08-09T17:17:02.329Z,2.85
2022-08-09T17:19:46.503Z,2.95
2022-08-09T17:22:15.054Z,3.45
2022-08-09T17:24:47.970Z,3.78
2022-08-09T17:27:22.247Z,3.05
2022-08-09T17:29:51.719Z,4.40
2022-08-09T17:32:26.605Z,3.42
2022-08-09T17:35:11.322Z,3.95
2022-08-09T17:38:11.868Z,3.25
2022-08-09T17:40:34.822Z,4.47
2022-08-09T17:43:32.908Z,2.72
2022-08-09T17:46:03.463Z,3.20
2022-08-09T17:48:51.909Z,2.55
2022-08-09T17:53:56.487Z,2.90
2022-08-09T17:56:35.512Z,3.03
2022-08-09T17:59:09.146Z,2.88
2022-08-09T18:01:57.898Z,2.70
2022-08-09T18:04:29.871Z,2.38
2022-08-09T18:07:07.527Z,2.60
2022-08-09T18:09:41.386Z,2.80
2022-08-09T18:12:19.496Z,2.78
2022-08-09T18:14:54.480Z,2.67
2022-08-09T18:18:02.601Z,2.67
2022-08-09T18:20:55.073Z,2.70
2022-08-09T18:24:08.768Z,2.83
2022-08-09T18:25:59.600Z,2.60
2022-08-09T18:30:39.092Z,2.65
2022-08-09T18:31:19.249Z,2.65
2022-08-09T18:34:01.578Z,2.72
2022-08-09T18:36:32.494Z,3.13
2022-08-09T18:39:06.959Z,3.05
2022-08-09T18:41:56.371Z,3.00
2022-08-09T18:44:25.514Z,2.88
2022-08-09T18:47:06.316Z,3.28
2022-08-09T18:49:43.426Z,3.33
2022-08-09T18:52:24.571Z,3.38
2022-08-09T18:54:53.396Z,3.58
2022-08-09T18:57:23.134Z,3.65
2022-08-09T18:59:55.390Z,3.90
2022-08-09T19:02:32.065Z,4.25
2022-08-09T19:08:04.118Z,3.53
2022-08-09T19:10:40.274Z,3.58
2022-08-09T19:13:20.260Z,4.22
2022-08-09T19:15:56.511Z,3.57
2022-08-09T19:18:36.415Z,3.55
2022-08-09T19:21:09.242Z,3.17
2022-08-09T19:24:33.117Z,3.35
2022-08-09T19:26:31.201Z,3.70
2022-08-09T19:29:03.185Z,3.63
2022-08-09T19:31:45.400Z,4.15
2022-08-09T19:34:22.258Z,3.65
2022-08-09T19:36:53.908Z,4.38
2022-08-09T19:39:42.900Z,4.70
2022-08-09T19:42:14.428Z,4.55
2022-08-09T19:44:50.948Z,4.80
2022-08-09T19:47:23.249Z,4.55
2022-08-09T19:50:08.174Z,4.93
2022-08-09T19:52:51.536Z,5.68
2022-08-09T19:55:30.823Z,4.90
2022-08-09T19:58:16.159Z,5.20
2022-08-09T20:00:47.565Z,4.57
2022-08-09T20:04:17.767Z,5.53
2022-08-09T20:06:05.108Z,5.65
2022-08-09T20:08:57.015Z,5.10
2022-08-09T20:11:42.782Z,4.82
2022-08-09T20:14:15.061Z,5.40
2022-08-09T20:16:53.215Z,5.38
2022-08-09T20:19:48.423Z,4.97
2022-08-09T20:22:16.861Z,5.40
2022-08-09T20:24:53.429Z,5.68
2022-08-09T20:27:21.690Z,5.30
2022-08-09T20:29:48.977Z,5.68
2022-08-09T20:32:30.131Z,5.32
2022-08-09T20:35:00.112Z,5.32
2022-08-09T20:37:37.738Z,5.72
2022-08-09T20:40:26.423Z,5.90
2022-08-09T20:42:59.824Z,5.68
2022-08-09T20:46:01.158Z,4.95
2022-08-09T20:48:30.898Z,4.95
2022-08-09T20:51:00.875Z,4.90
2022-08-09T20:53:36.822Z,4.65
2022-08-09T20:56:20.397Z,5.28
2022-08-09T20:58:59.007Z,5.70
2022-08-09T21:01:34.321Z,4.57
2022-08-09T21:05:53.877Z,5.65
2022-08-09T21:07:11.328Z,5.50
2022-08-09T21:09:45.788Z,6.70
2022-08-09T21:15:12.860Z,5.57
2022-08-09T21:18:20.878Z,4.88
2022-08-09T21:20:30.078Z,5.72
2022-08-09T21:22:58.300Z,5.88
2022-08-09T21:25:56.019Z,5.75
2022-08-09T21:28:36.113Z,6.15
2022-08-09T21:31:16.704Z,5.97
2022-08-09T21:33:51.394Z,6.93
2022-08-09T21:36:23.473Z,6.80
2022-08-09T21:38:57.226Z,6.38
2022-08-09T21:42:03.813Z,5.65
2022-08-09T21:44:34.109Z,5.68
2022-08-09T21:47:09.190Z,5.85
2022-08-09T21:52:20.938Z,6.22
2022-08-09T21:55:03.535Z,5.78
2022-08-09T21:57:38.413Z,5.65
2022-08-09T22:00:33.494Z,5.95
2022-08-09T22:03:19.804Z,5.70
2022-08-09T22:05:55.461Z,6.45
2022-08-09T22:08:26.026Z,6.47
2022-08-09T22:11:50.437Z,6.43
2022-08-09T22:13:43.608Z,6.30
2022-08-09T22:16:12.060Z,5.22
2022-08-09T22:18:53.101Z,6.05
2022-08-09T22:21:45.050Z,6.10
2022-08-09T22:24:21.043Z,5.80
2022-08-09T22:26:51.986Z,5.72
2022-08-09T22:29:26.784Z,6.00
2022-08-09T22:31:58.853Z,5.07
2022-08-09T22:34:27.103Z,5.82
2022-08-09T22:36:59.227Z,5.97
2022-08-09T22:39:57.198Z,5.85
2022-08-09T22:42:21.166Z,5.88
2022-08-09T22:45:02.266Z,6.32
2022-08-09T22:48:12.119Z,6.72
2022-08-09T22:50:31.950Z,5.32
2022-08-09T22:53:03.877Z,6.15
2022-08-09T22:56:06.220Z,5.30
2022-08-09T22:58:32.910Z,5.28
2022-08-09T23:01:03.042Z,5.72
2022-08-09T23:04:05.469Z,5.93
2022-08-09T23:06:34.792Z,6.63
2022-08-09T23:09:06.412Z,5.80
2022-08-09T23:11:33.439Z,5.63
2022-08-09T23:14:00.475Z,5.25
2022-08-09T23:16:27.140Z,5.55
2022-08-09T23:18:53.809Z,6.15
2022-08-09T23:21:25.228Z,8.15
2022-08-09T23:24:05.722Z,6.05
2022-08-09T23:26:35.014Z,6.82
2022-08-09T23:29:01.693Z,6.72
2022-08-09T23:31:28.418Z,5.85
2022-08-09T23:33:55.083Z,6.38
2022-08-09T23:36:21.825Z,6.00
2022-08-09T23:38:49.531Z,5.32
2022-08-09T23:41:28.318Z,6.60
2022-08-09T23:44:01.678Z,7.07
2022-08-09T23:46:31.620Z,6.53
2022-08-09T23:49:00.178Z,5.55
2022-08-09T23:51:30.481Z,7.47
2022-08-09T23:54:02.465Z,5.78
2022-08-09T23:56:53.147Z,5.85
2022-08-09T23:59:21.295Z,6.28
